Grobbendonk, Belgium
Current Conditions -  °F | °C
As of 11:50 PM on Tuesday 27 Jan 2015 (Local Time) from EBAW Reporting Station
Broken Clouds Broken Clouds  
Wind Chill: 36°   Ceiling: 2600
Heat Index: 41°   Visibility: 6mi
Dew Point: 37°   Wind: 8mph
Humidity: 87%   Direction: 240°WSW
Pressure: 30.18"   Gusts: NA
Location:  51.19°N, 4.74°E
Report Text: EBAW 272250Z AUTO 24007KT 9000 SCT023/// BKN026/// BKN031/// 05/03 Q1022
Loading
Personal Weather Stations






























Interactive Weather Map New forecast layout! Learn more

10-Day Weather Forecast

Advertisements
Track Severe Weather on mobile